sensor_id;sensor_type;location;lat;lon;timestamp;pressure;altitude;pressure_sealevel;temperature;humidity
43420;BME280;29017;51.514;-0.178;2023-02-01T00:00:56;102068.94;;;8.69;70.35
43420;BME280;29017;51.514;-0.178;2023-02-01T00:03:23;102058.47;;;8.69;70.77
43420;BME280;29017;51.514;-0.178;2023-02-01T00:08:20;102075.59;;;8.62;71.36
43420;BME280;29017;51.514;-0.178;2023-02-01T00:10:47;102080.84;;;8.62;71.59
43420;BME280;29017;51.514;-0.178;2023-02-01T00:13:14;102073.06;;;8.60;72.02
43420;BME280;29017;51.514;-0.178;2023-02-01T00:15:41;102079.06;;;8.62;71.59
43420;BME280;29017;51.514;-0.178;2023-02-01T00:18:08;102070.25;;;8.63;71.89
43420;BME280;29017;51.514;-0.178;2023-02-01T00:20:35;102077.06;;;8.66;72.65
43420;BME280;29017;51.514;-0.178;2023-02-01T00:23:02;102076.00;;;8.68;73.12
43420;BME280;29017;51.514;-0.178;2023-02-01T00:25:29;102069.78;;;8.69;72.15
43420;BME280;29017;51.514;-0.178;2023-02-01T00:27:56;102079.44;;;8.69;72.24
43420;BME280;29017;51.514;-0.178;2023-02-01T00:30:25;102063.09;;;8.65;72.21
43420;BME280;29017;51.514;-0.178;2023-02-01T00:32:52;102053.53;;;8.64;72.94
43420;BME280;29017;51.514;-0.178;2023-02-01T00:35:19;102049.38;;;8.62;73.42
43420;BME280;29017;51.514;-0.178;2023-02-01T00:37:45;102029.56;;;8.57;73.24
43420;BME280;29017;51.514;-0.178;2023-02-01T00:40:12;102022.63;;;8.56;72.94
43420;BME280;29017;51.514;-0.178;2023-02-01T00:42:39;102029.66;;;8.56;73.54
43420;BME280;29017;51.514;-0.178;2023-02-01T00:45:06;102027.88;;;8.56;73.53
43420;BME280;29017;51.514;-0.178;2023-02-01T00:47:34;102023.34;;;8.58;73.46
43420;BME280;29017;51.514;-0.178;2023-02-01T00:50:01;102028.81;;;8.55;73.53
43420;BME280;29017;51.514;-0.178;2023-02-01T00:52:27;102026.19;;;8.55;73.73
43420;BME280;29017;51.514;-0.178;2023-02-01T00:54:54;102011.28;;;8.56;74.01
43420;BME280;29017;51.514;-0.178;2023-02-01T00:57:21;102021.06;;;8.54;73.82
43420;BME280;29017;51.514;-0.178;2023-02-01T00:59:48;102015.09;;;8.52;74.70
43420;BME280;29017;51.514;-0.178;2023-02-01T01:02:15;102020.34;;;8.52;74.92
43420;BME280;29017;51.514;-0.178;2023-02-01T01:04:42;102027.13;;;8.54;74.47
43420;BME280;29017;51.514;-0.178;2023-02-01T01:07:09;102031.34;;;8.57;75.45
43420;BME280;29017;51.514;-0.178;2023-02-01T01:09:36;102017.38;;;8.56;75.76
43420;BME280;29017;51.514;-0.178;2023-02-01T01:12:03;102015.59;;;8.57;75.35
43420;BME280;29017;51.514;-0.178;2023-02-01T01:14:30;102009.63;;;8.55;74.82
43420;BME280;29017;51.514;-0.178;2023-02-01T01:16:57;102013.19;;;8.54;75.15
43420;BME280;29017;51.514;-0.178;2023-02-01T01:19:24;102016.13;;;8.49;75.18
43420;BME280;29017;51.514;-0.178;2023-02-01T01:21:51;102012.91;;;8.46;74.85
43420;BME280;29017;51.514;-0.178;2023-02-01T01:24:18;102005.88;;;8.46;76.15
43420;BME280;29017;51.514;-0.178;2023-02-01T01:26:45;102005.13;;;8.44;76.10
43420;BME280;29017;51.514;-0.178;2023-02-01T01:29:12;101999.78;;;8.46;75.22
43420;BME280;29017;51.514;-0.178;2023-02-01T01:31:39;101985.22;;;8.42;75.05
43420;BME280;29017;51.514;-0.178;2023-02-01T01:34:06;101995.09;;;8.38;75.38
43420;BME280;29017;51.514;-0.178;2023-02-01T01:36:33;101986.41;;;8.38;76.14
43420;BME280;29017;51.514;-0.178;2023-02-01T01:39:00;101999.28;;;8.41;75.98
43420;BME280;29017;51.514;-0.178;2023-02-01T01:41:30;101989.63;;;8.41;75.63
43420;BME280;29017;51.514;-0.178;2023-02-01T01:46:28;101990.56;;;8.40;75.51
43420;BME280;29017;51.514;-0.178;2023-02-01T01:51:23;101997.00;;;8.36;75.92
43420;BME280;29017;51.514;-0.178;2023-02-01T01:53:54;101981.25;;;8.36;76.21
43420;BME280;29017;51.514;-0.178;2023-02-01T01:56:22;101982.81;;;8.39;76.90
43420;BME280;29017;51.514;-0.178;2023-02-01T01:58:49;101992.47;;;8.38;76.33
43420;BME280;29017;51.514;-0.178;2023-02-01T02:01:16;101988.28;;;8.36;76.19
43420;BME280;29017;51.514;-0.178;2023-02-01T02:03:44;101986.69;;;8.33;75.87
43420;BME280;29017;51.514;-0.178;2023-02-01T02:06:15;101986.94;;;8.30;76.12
43420;BME280;29017;51.514;-0.178;2023-02-01T02:08:46;101978.63;;;8.24;75.99
43420;BME280;29017;51.514;-0.178;2023-02-01T02:11:14;101986.63;;;8.22;76.51
43420;BME280;29017;51.514;-0.178;2023-02-01T02:13:44;101989.56;;;8.18;76.71
43420;BME280;29017;51.514;-0.178;2023-02-01T02:18:47;101972.16;;;8.16;76.70
43420;BME280;29017;51.514;-0.178;2023-02-01T02:28:56;101980.22;;;8.13;77.26
43420;BME280;29017;51.514;-0.178;2023-02-01T02:44:05;101956.94;;;8.22;77.71
43420;BME280;29017;51.514;-0.178;2023-02-01T02:46:38;101953.25;;;8.24;77.64
43420;BME280;29017;51.514;-0.178;2023-02-01T02:51:41;101950.84;;;8.34;77.12
43420;BME280;29017;51.514;-0.178;2023-02-01T02:54:16;101957.44;;;8.39;77.72
43420;BME280;29017;51.514;-0.178;2023-02-01T02:56:47;101943.38;;;8.40;77.65
43420;BME280;29017;51.514;-0.178;2023-02-01T02:59:19;101950.63;;;8.37;77.36
43420;BME280;29017;51.514;-0.178;2023-02-01T03:01:51;101956.94;;;8.34;77.36
43420;BME280;29017;51.514;-0.178;2023-02-01T03:04:21;101945.81;;;8.31;77.78
43420;BME280;29017;51.514;-0.178;2023-02-01T03:06:50;101956.31;;;8.31;78.03
43420;BME280;29017;51.514;-0.178;2023-02-01T03:09:21;101954.09;;;8.25;77.38
43420;BME280;29017;51.514;-0.178;2023-02-01T03:11:49;101950.75;;;8.23;77.52
43420;BME280;29017;51.514;-0.178;2023-02-01T03:14:23;101951.47;;;8.25;78.64
43420;BME280;29017;51.514;-0.178;2023-02-01T03:16:54;101951.47;;;8.25;77.81
43420;BME280;29017;51.514;-0.178;2023-02-01T03:19:27;101939.31;;;8.24;77.60
43420;BME280;29017;51.514;-0.178;2023-02-01T03:24:24;101940.16;;;8.24;78.16
43420;BME280;29017;51.514;-0.178;2023-02-01T03:27:01;101941.81;;;8.25;78.30
43420;BME280;29017;51.514;-0.178;2023-02-01T03:32:01;101946.47;;;8.22;78.26
43420;BME280;29017;51.514;-0.178;2023-02-01T03:34:28;101951.72;;;8.22;78.00
43420;BME280;29017;51.514;-0.178;2023-02-01T03:36:58;101949.09;;;8.22;78.26
43420;BME280;29017;51.514;-0.178;2023-02-01T03:41:57;101951.81;;;8.20;77.93
43420;BME280;29017;51.514;-0.178;2023-02-01T03:51:50;101961.16;;;8.11;77.62
43420;BME280;29017;51.514;-0.178;2023-02-01T03:54:18;101965.47;;;8.12;78.01
43420;BME280;29017;51.514;-0.178;2023-02-01T03:56:46;101964.41;;;8.15;78.26
43420;BME280;29017;51.514;-0.178;2023-02-01T03:59:15;101961.78;;;8.15;78.39
43420;BME280;29017;51.514;-0.178;2023-02-01T04:01:42;101959.16;;;8.15;78.73
43420;BME280;29017;51.514;-0.178;2023-02-01T04:04:13;101962.63;;;8.15;79.04
43420;BME280;29017;51.514;-0.178;2023-02-01T04:06:48;101963.47;;;8.16;78.74
43420;BME280;29017;51.514;-0.178;2023-02-01T04:09:16;101958.00;;;8.19;78.83
43420;BME280;29017;51.514;-0.178;2023-02-01T04:11:43;101950.25;;;8.18;78.68
43420;BME280;29017;51.514;-0.178;2023-02-01T04:14:10;101947.84;;;8.14;77.78
43420;BME280;29017;51.514;-0.178;2023-02-01T04:16:38;101941.13;;;8.10;77.41
43420;BME280;29017;51.514;-0.178;2023-02-01T04:19:05;101937.16;;;8.05;78.01
43420;BME280;29017;51.514;-0.178;2023-02-01T04:21:32;101940.72;;;8.04;78.10
43420;BME280;29017;51.514;-0.178;2023-02-01T04:23:59;101941.56;;;8.04;78.70
43420;BME280;29017;51.514;-0.178;2023-02-01T04:26:26;101943.47;;;8.02;78.23
43420;BME280;29017;51.514;-0.178;2023-02-01T04:28:54;101942.75;;;8.00;78.08
43420;BME280;29017;51.514;-0.178;2023-02-01T04:31:21;101947.03;;;8.01;77.83
43420;BME280;29017;51.514;-0.178;2023-02-01T04:33:51;101948.91;;;7.99;78.37
43420;BME280;29017;51.514;-0.178;2023-02-01T04:36:20;101951.63;;;7.98;78.70
43420;BME280;29017;51.514;-0.178;2023-02-01T04:38:49;101956.16;;;7.96;78.65
43420;BME280;29017;51.514;-0.178;2023-02-01T04:41:16;101944.25;;;7.92;77.92
43420;BME280;29017;51.514;-0.178;2023-02-01T04:43:46;101935.63;;;7.90;78.50
43420;BME280;29017;51.514;-0.178;2023-02-01T04:46:13;101931.22;;;7.90;78.21
43420;BME280;29017;51.514;-0.178;2023-02-01T04:48:41;101932.91;;;7.91;78.74
43420;BME280;29017;51.514;-0.178;2023-02-01T04:51:08;101939.84;;;7.92;79.17
43420;BME280;29017;51.514;-0.178;2023-02-01T04:53:36;101949.47;;;7.92;78.90
43420;BME280;29017;51.514;-0.178;2023-02-01T04:56:04;101939.94;;;7.91;78.65
43420;BME280;29017;51.514;-0.178;2023-02-01T04:58:31;101948.22;;;7.85;78.47
43420;BME280;29017;51.514;-0.178;2023-02-01T05:00:57;101942.03;;;7.86;78.66
43420;BME280;29017;51.514;-0.178;2023-02-01T05:03:24;101950.00;;;7.84;78.70
43420;BME280;29017;51.514;-0.178;2023-02-01T05:05:51;101968.16;;;7.87;79.51
43420;BME280;29017;51.514;-0.178;2023-02-01T05:08:20;101959.31;;;7.88;80.05
43420;BME280;29017;51.514;-0.178;2023-02-01T05:10:49;101954.06;;;7.88;79.66
43420;BME280;29017;51.514;-0.178;2023-02-01T05:13:16;101957.66;;;7.87;79.36
43420;BME280;29017;51.514;-0.178;2023-02-01T05:15:46;101965.81;;;7.83;78.93
43420;BME280;29017;51.514;-0.178;2023-02-01T05:18:13;101970.25;;;7.82;79.10
43420;BME280;29017;51.514;-0.178;2023-02-01T05:20:40;101972.88;;;7.82;79.45
43420;BME280;29017;51.514;-0.178;2023-02-01T05:23:07;101956.09;;;7.85;80.24
43420;BME280;29017;51.514;-0.178;2023-02-01T05:25:34;101965.53;;;7.87;81.02
43420;BME280;29017;51.514;-0.178;2023-02-01T05:28:01;101952.53;;;7.86;79.92
43420;BME280;29017;51.514;-0.178;2023-02-01T05:30:28;101958.59;;;7.86;80.26
43420;BME280;29017;51.514;-0.178;2023-02-01T05:32:56;101958.59;;;7.86;80.03
43420;BME280;29017;51.514;-0.178;2023-02-01T05:35:23;101961.41;;;7.83;79.54
43420;BME280;29017;51.514;-0.178;2023-02-01T05:37:50;101955.34;;;7.83;79.88
43420;BME280;29017;51.514;-0.178;2023-02-01T05:40:18;101954.53;;;7.82;80.45
43420;BME280;29017;51.514;-0.178;2023-02-01T05:42:45;101972.72;;;7.84;80.85
43420;BME280;29017;51.514;-0.178;2023-02-01T05:45:12;101956.19;;;7.83;79.86
43420;BME280;29017;51.514;-0.178;2023-02-01T05:47:39;101967.50;;;7.84;79.88
43420;BME280;29017;51.514;-0.178;2023-02-01T05:50:06;101947.38;;;7.84;80.25
43420;BME280;29017;51.514;-0.178;2023-02-01T05:52:33;101946.44;;;7.85;79.64
43420;BME280;29017;51.514;-0.178;2023-02-01T05:55:01;101943.81;;;7.85;80.07
43420;BME280;29017;51.514;-0.178;2023-02-01T05:57:28;101939.41;;;7.86;79.62
43420;BME280;29017;51.514;-0.178;2023-02-01T05:59:55;101947.78;;;7.91;79.91
43420;BME280;29017;51.514;-0.178;2023-02-01T06:02:23;101944.84;;;7.95;79.63
43420;BME280;29017;51.514;-0.178;2023-02-01T06:04:50;101936.75;;;7.98;79.51
43420;BME280;29017;51.514;-0.178;2023-02-01T06:07:17;101941.91;;;8.00;79.44
43420;BME280;29017;51.514;-0.178;2023-02-01T06:09:44;101942.97;;;7.97;78.99
43420;BME280;29017;51.514;-0.178;2023-02-01T06:12:11;101940.22;;;7.99;79.34
43420;BME280;29017;51.514;-0.178;2023-02-01T06:14:38;101942.84;;;7.99;79.01
43420;BME280;29017;51.514;-0.178;2023-02-01T06:17:05;101940.22;;;7.99;78.76
43420;BME280;29017;51.514;-0.178;2023-02-01T06:19:33;101945.25;;;8.02;79.44
43420;BME280;29017;51.514;-0.178;2023-02-01T06:22:00;101952.16;;;8.03;79.25
43420;BME280;29017;51.514;-0.178;2023-02-01T06:24:27;101943.47;;;8.02;78.72
43420;BME280;29017;51.514;-0.178;2023-02-01T06:26:55;101943.59;;;8.01;78.59
43420;BME280;29017;51.514;-0.178;2023-02-01T06:29:22;101950.50;;;8.02;79.03
43420;BME280;29017;51.514;-0.178;2023-02-01T06:31:50;101947.03;;;8.01;78.35
43420;BME280;29017;51.514;-0.178;2023-02-01T06:34:17;101937.41;;;8.02;78.35
43420;BME280;29017;51.514;-0.178;2023-02-01T06:36:47;101937.06;;;8.06;78.65
43420;BME280;29017;51.514;-0.178;2023-02-01T06:39:14;101941.25;;;8.09;78.92
43420;BME280;29017;51.514;-0.178;2023-02-01T06:41:45;101940.91;;;8.13;78.93
43420;BME280;29017;51.514;-0.178;2023-02-01T06:44:13;101943.34;;;8.16;78.73
43420;BME280;29017;51.514;-0.178;2023-02-01T06:46:40;101936.31;;;8.17;78.99
43420;BME280;29017;51.514;-0.178;2023-02-01T06:49:08;101937.00;;;8.19;78.55
43420;BME280;29017;51.514;-0.178;2023-02-01T06:51:36;101931.56;;;8.22;79.71
43420;BME280;29017;51.514;-0.178;2023-02-01T06:54:03;101928.81;;;8.24;79.09
43420;BME280;29017;51.514;-0.178;2023-02-01T06:56:31;101931.44;;;8.24;79.20
43420;BME280;29017;51.514;-0.178;2023-02-01T06:59:01;101929.56;;;8.26;79.20
43420;BME280;29017;51.514;-0.178;2023-02-01T07:01:31;101935.75;;;8.25;78.03
43420;BME280;29017;51.514;-0.178;2023-02-01T07:04:11;101946.22;;;8.25;78.56
43420;BME280;29017;51.514;-0.178;2023-02-01T07:06:45;101958.28;;;8.27;78.18
43420;BME280;29017;51.514;-0.178;2023-02-01T07:09:13;101966.88;;;8.29;78.44
43420;BME280;29017;51.514;-0.178;2023-02-01T07:11:56;101968.34;;;8.33;78.66
43420;BME280;29017;51.514;-0.178;2023-02-01T07:14:25;101969.19;;;8.34;78.17
43420;BME280;29017;51.514;-0.178;2023-02-01T07:16:53;101976.97;;;8.35;77.84
43420;BME280;29017;51.514;-0.178;2023-02-01T07:19:27;101973.41;;;8.36;77.97
43420;BME280;29017;51.514;-0.178;2023-02-01T07:22:09;101983.66;;;8.39;78.23
43420;BME280;29017;51.514;-0.178;2023-02-01T07:24:38;101978.31;;;8.41;78.17
43420;BME280;29017;51.514;-0.178;2023-02-01T07:27:05;101974.75;;;8.42;78.26
43420;BME280;29017;51.514;-0.178;2023-02-01T07:29:34;101981.78;;;8.41;78.15
43420;BME280;29017;51.514;-0.178;2023-02-01T07:32:12;101990.34;;;8.43;78.65
43420;BME280;29017;51.514;-0.178;2023-02-01T07:34:56;101998.00;;;8.46;79.28
43420;BME280;29017;51.514;-0.178;2023-02-01T07:37:24;101991.81;;;8.47;79.12
43420;BME280;29017;51.514;-0.178;2023-02-01T07:39:51;101998.72;;;8.48;78.15
43420;BME280;29017;51.514;-0.178;2023-02-01T07:42:18;101998.63;;;8.50;78.64
43420;BME280;29017;51.514;-0.178;2023-02-01T07:44:47;102003.75;;;8.51;78.45
43420;BME280;29017;51.514;-0.178;2023-02-01T07:47:17;102006.38;;;8.51;77.81
43420;BME280;29017;51.514;-0.178;2023-02-01T07:49:44;102013.50;;;8.49;78.29
43420;BME280;29017;51.514;-0.178;2023-02-01T07:52:10;102013.41;;;8.51;78.97
43420;BME280;29017;51.514;-0.178;2023-02-01T07:54:39;102008.56;;;8.57;79.34
43420;BME280;29017;51.514;-0.178;2023-02-01T07:57:06;102009.28;;;8.59;79.00
43420;BME280;29017;51.514;-0.178;2023-02-01T07:59:35;102000.88;;;8.67;81.52
43420;BME280;29017;51.514;-0.178;2023-02-01T08:02:22;102002.59;;;8.79;82.33
43420;BME280;29017;51.514;-0.178;2023-02-01T08:04:49;102006.03;;;8.80;80.80
43420;BME280;29017;51.514;-0.178;2023-02-01T08:07:16;102005.09;;;8.81;80.20
43420;BME280;29017;51.514;-0.178;2023-02-01T08:09:43;102006.03;;;8.80;79.58
43420;BME280;29017;51.514;-0.178;2023-02-01T08:12:10;102019.16;;;8.80;79.22
43420;BME280;29017;51.514;-0.178;2023-02-01T08:14:36;102021.78;;;8.80;79.45
43420;BME280;29017;51.514;-0.178;2023-02-01T08:17:03;102010.25;;;8.82;78.86
43420;BME280;29017;51.514;-0.178;2023-02-01T08:19:30;102004.16;;;8.82;78.80
43420;BME280;29017;51.514;-0.178;2023-02-01T08:21:58;102017.38;;;8.80;78.59
43420;BME280;29017;51.514;-0.178;2023-02-01T08:24:26;102018.13;;;8.82;79.50
43420;BME280;29017;51.514;-0.178;2023-02-01T08:26:53;102016.94;;;8.86;79.37
43420;BME280;29017;51.514;-0.178;2023-02-01T08:29:20;102010.84;;;8.86;79.10
43420;BME280;29017;51.514;-0.178;2023-02-01T08:31:47;102003.59;;;8.89;79.21
43420;BME280;29017;51.514;-0.178;2023-02-01T08:34:14;102004.09;;;8.94;79.20
43420;BME280;29017;51.514;-0.178;2023-02-01T08:36:41;102009.13;;;8.97;78.83
43420;BME280;29017;51.514;-0.178;2023-02-01T08:39:09;102000.91;;;9.02;79.06
43420;BME280;29017;51.514;-0.178;2023-02-01T08:41:37;101989.56;;;9.01;78.99
43420;BME280;29017;51.514;-0.178;2023-02-01T08:44:04;101989.06;;;8.96;78.31
43420;BME280;29017;51.514;-0.178;2023-02-01T08:46:31;101985.72;;;8.94;78.78
43420;BME280;29017;51.514;-0.178;2023-02-01T08:48:58;101993.72;;;8.93;78.47
43420;BME280;29017;51.514;-0.178;2023-02-01T08:51:25;101995.50;;;8.92;77.83
43420;BME280;29017;51.514;-0.178;2023-02-01T08:53:52;101995.25;;;8.95;77.99
43420;BME280;29017;51.514;-0.178;2023-02-01T08:56:19;102009.13;;;8.97;78.38
43420;BME280;29017;51.514;-0.178;2023-02-01T08:58:46;102005.22;;;9.03;78.28
43420;BME280;29017;51.514;-0.178;2023-02-01T09:01:15;102006.75;;;9.06;78.50
43420;BME280;29017;51.514;-0.178;2023-02-01T09:03:43;102004.88;;;9.08;78.34
43420;BME280;29017;51.514;-0.178;2023-02-01T09:06:12;102001.31;;;9.09;77.49
43420;BME280;29017;51.514;-0.178;2023-02-01T09:08:39;102007.50;;;9.08;77.40
43420;BME280;29017;51.514;-0.178;2023-02-01T09:11:07;102004.53;;;9.12;77.78
43420;BME280;29017;51.514;-0.178;2023-02-01T09:13:34;102001.44;;;9.18;77.64
43420;BME280;29017;51.514;-0.178;2023-02-01T09:16:02;102005.63;;;9.21;76.81
43420;BME280;29017;51.514;-0.178;2023-02-01T09:18:29;102001.09;;;9.23;77.06
43420;BME280;29017;51.514;-0.178;2023-02-01T09:20:56;102004.44;;;9.25;77.21
43420;BME280;29017;51.514;-0.178;2023-02-01T09:23:23;102001.47;;;9.29;76.54
43420;BME280;29017;51.514;-0.178;2023-02-01T09:25:50;102001.97;;;9.34;77.08
43420;BME280;29017;51.514;-0.178;2023-02-01T09:28:18;102000.06;;;9.36;76.63
43420;BME280;29017;51.514;-0.178;2023-02-01T09:30:45;102001.50;;;9.40;77.24
43420;BME280;29017;51.514;-0.178;2023-02-01T09:33:13;102011.88;;;9.42;76.57
43420;BME280;29017;51.514;-0.178;2023-02-01T09:35:40;102013.47;;;9.44;76.35
43420;BME280;29017;51.514;-0.178;2023-02-01T09:38:07;102017.72;;;9.45;76.50
43420;BME280;29017;51.514;-0.178;2023-02-01T09:40:34;102018.81;;;9.43;75.89
43420;BME280;29017;51.514;-0.178;2023-02-01T09:43:07;102019.66;;;9.43;77.11
43420;BME280;29017;51.514;-0.178;2023-02-01T09:48:05;102021.19;;;9.46;75.89
43420;BME280;29017;51.514;-0.178;2023-02-01T09:50:37;102028.88;;;9.49;76.74
43420;BME280;29017;51.514;-0.178;2023-02-01T09:53:10;102031.25;;;9.52;77.23
43420;BME280;29017;51.514;-0.178;2023-02-01T10:00:39;102022.94;;;9.69;76.04
43420;BME280;29017;51.514;-0.178;2023-02-01T10:03:11;102024.38;;;9.73;76.07
43420;BME280;29017;51.514;-0.178;2023-02-01T10:05:43;102027.69;;;9.75;75.75
43420;BME280;29017;51.514;-0.178;2023-02-01T10:15:44;102030.59;;;9.95;74.66
43420;BME280;29017;51.514;-0.178;2023-02-01T10:28:29;102027.03;;;10.18;72.80
43420;BME280;29017;51.514;-0.178;2023-02-01T10:31:00;102024.41;;;10.18;72.17
43420;BME280;29017;51.514;-0.178;2023-02-01T10:36:01;102033.50;;;10.25;71.77
43420;BME280;29017;51.514;-0.178;2023-02-01T10:38:30;102024.41;;;10.29;71.76
43420;BME280;29017;51.514;-0.178;2023-02-01T10:41:01;102029.31;;;10.34;72.34
43420;BME280;29017;51.514;-0.178;2023-02-01T10:43:29;102035.97;;;10.38;71.49
43420;BME280;29017;51.514;-0.178;2023-02-01T10:45:57;102040.66;;;10.45;71.75
43420;BME280;29017;51.514;-0.178;2023-02-01T10:48:24;102037.66;;;10.50;71.03
43420;BME280;29017;51.514;-0.178;2023-02-01T10:55:51;102037.63;;;10.61;71.00
43420;BME280;29017;51.514;-0.178;2023-02-01T11:00:48;102043.75;;;10.61;70.77
43420;BME280;29017;51.514;-0.178;2023-02-01T11:03:22;102038.47;;;10.61;69.98
43420;BME280;29017;51.514;-0.178;2023-02-01T11:05:57;102048.03;;;10.62;69.00
43420;BME280;29017;51.514;-0.178;2023-02-01T11:08:24;102036.66;;;10.62;69.61
43420;BME280;29017;51.514;-0.178;2023-02-01T11:13:22;102031.38;;;10.73;70.09
43420;BME280;29017;51.514;-0.178;2023-02-01T11:15:55;102035.06;;;10.82;70.04
43420;BME280;29017;51.514;-0.178;2023-02-01T11:20:53;102025.31;;;10.93;68.59
43420;BME280;29017;51.514;-0.178;2023-02-01T11:23:22;102028.28;;;11.00;69.61
43420;BME280;29017;51.514;-0.178;2023-02-01T11:28:21;102029.81;;;11.02;68.37
43420;BME280;29017;51.514;-0.178;2023-02-01T11:30:49;102029.31;;;11.08;69.11
43420;BME280;29017;51.514;-0.178;2023-02-01T11:33:18;102019.13;;;11.15;69.32
43420;BME280;29017;51.514;-0.178;2023-02-01T11:35:47;102029.16;;;11.21;69.14
43420;BME280;29017;51.514;-0.178;2023-02-01T11:40:44;102016.19;;;11.29;67.93
43420;BME280;29017;51.514;-0.178;2023-02-01T11:45:39;102017.75;;;11.32;68.17
43420;BME280;29017;51.514;-0.178;2023-02-01T11:48:09;102022.47;;;11.38;68.32
43420;BME280;29017;51.514;-0.178;2023-02-01T12:05:41;102019.31;;;11.65;66.87
43420;BME280;29017;51.514;-0.178;2023-02-01T12:10:45;102026.28;;;11.66;66.46
43420;BME280;29017;51.514;-0.178;2023-02-01T12:43:14;101999.81;;;11.97;65.87
43420;BME280;29017;51.514;-0.178;2023-02-01T12:45:50;101994.16;;;12.02;66.20
43420;BME280;29017;51.514;-0.178;2023-02-01T12:50:50;101981.81;;;12.12;65.41
43420;BME280;29017;51.514;-0.178;2023-02-01T12:53:23;101980.44;;;12.18;65.40
43420;BME280;29017;51.514;-0.178;2023-02-01T12:55:53;101982.56;;;12.24;65.45
43420;BME280;29017;51.514;-0.178;2023-02-01T13:08:23;101983.56;;;12.52;64.99
43420;BME280;29017;51.514;-0.178;2023-02-01T13:10:53;101988.44;;;12.56;64.04
43420;BME280;29017;51.514;-0.178;2023-02-01T13:13:25;101980.25;;;12.59;63.90
43420;BME280;29017;51.514;-0.178;2023-02-01T13:15:57;101978.16;;;12.63;64.23
43420;BME280;29017;51.514;-0.178;2023-02-01T13:18:26;101983.16;;;12.66;64.66
43420;BME280;29017;51.514;-0.178;2023-02-01T13:21:02;101980.09;;;12.70;64.52
43420;BME280;29017;51.514;-0.178;2023-02-01T13:26:01;101990.53;;;12.72;62.91
43420;BME280;29017;51.514;-0.178;2023-02-01T13:38:53;101986.81;;;12.74;63.85
43420;BME280;29017;51.514;-0.178;2023-02-01T13:41:31;101979.56;;;12.76;63.69
43420;BME280;29017;51.514;-0.178;2023-02-01T13:44:00;101982.06;;;12.78;64.37
43420;BME280;29017;51.514;-0.178;2023-02-01T13:46:29;101973.03;;;12.80;63.75
43420;BME280;29017;51.514;-0.178;2023-02-01T13:48:59;101980.69;;;12.83;64.09
43420;BME280;29017;51.514;-0.178;2023-02-01T13:53:57;101977.75;;;12.86;63.82
43420;BME280;29017;51.514;-0.178;2023-02-01T13:56:24;101992.34;;;12.91;63.72
43420;BME280;29017;51.514;-0.178;2023-02-01T13:58:52;101989.88;;;12.89;63.04
43420;BME280;29017;51.514;-0.178;2023-02-01T14:08:44;101968.75;;;12.89;64.17
43420;BME280;29017;51.514;-0.178;2023-02-01T14:11:31;101979.97;;;12.91;63.87
43420;BME280;29017;51.514;-0.178;2023-02-01T14:14:06;101973.84;;;12.91;63.32
43420;BME280;29017;51.514;-0.178;2023-02-01T14:16:33;101976.50;;;12.91;63.64
43420;BME280;29017;51.514;-0.178;2023-02-01T14:19:00;101970.13;;;12.93;63.72
43420;BME280;29017;51.514;-0.178;2023-02-01T14:21:30;101967.75;;;12.90;63.84
43420;BME280;29017;51.514;-0.178;2023-02-01T14:23:59;101979.28;;;12.99;63.11
43420;BME280;29017;51.514;-0.178;2023-02-01T14:26:40;101974.00;;;12.99;62.93
43420;BME280;29017;51.514;-0.178;2023-02-01T14:34:18;101967.75;;;12.90;63.83
43420;BME280;29017;51.514;-0.178;2023-02-01T14:36:48;101966.34;;;12.86;63.83
43420;BME280;29017;51.514;-0.178;2023-02-01T14:41:46;101965.09;;;12.80;64.51
43420;BME280;29017;51.514;-0.178;2023-02-01T14:44:14;101957.47;;;12.77;64.78
43420;BME280;29017;51.514;-0.178;2023-02-01T14:49:18;101949.00;;;12.74;64.62
43420;BME280;29017;51.514;-0.178;2023-02-01T14:51:45;101948.16;;;12.73;64.94
43420;BME280;29017;51.514;-0.178;2023-02-01T14:54:13;101959.13;;;12.69;64.69
43420;BME280;29017;51.514;-0.178;2023-02-01T14:56:40;101954.00;;;12.67;65.07
43420;BME280;29017;51.514;-0.178;2023-02-01T14:59:09;101966.06;;;12.70;64.56
43420;BME280;29017;51.514;-0.178;2023-02-01T15:01:39;101961.06;;;12.67;64.47
43420;BME280;29017;51.514;-0.178;2023-02-01T15:04:15;101964.69;;;12.66;64.97
43420;BME280;29017;51.514;-0.178;2023-02-01T15:09:15;101958.44;;;12.67;65.40
43420;BME280;29017;51.514;-0.178;2023-02-01T15:14:14;101968.72;;;12.70;64.84
43420;BME280;29017;51.514;-0.178;2023-02-01T15:16:42;101958.97;;;12.70;65.09
43420;BME280;29017;51.514;-0.178;2023-02-01T15:19:10;101967.06;;;12.69;64.71
43420;BME280;29017;51.514;-0.178;2023-02-01T15:26:38;101973.72;;;12.63;64.26
43420;BME280;29017;51.514;-0.178;2023-02-01T15:29:09;101978.31;;;12.61;64.70
43420;BME280;29017;51.514;-0.178;2023-02-01T15:31:38;101969.41;;;12.62;64.50
43420;BME280;29017;51.514;-0.178;2023-02-01T15:34:05;101965.81;;;12.63;65.98
43420;BME280;29017;51.514;-0.178;2023-02-01T15:36:33;101975.78;;;12.60;64.46
43420;BME280;29017;51.514;-0.178;2023-02-01T15:41:30;101970.91;;;12.55;65.88
43420;BME280;29017;51.514;-0.178;2023-02-01T15:48:56;101968.16;;;12.57;65.96
43420;BME280;29017;51.514;-0.178;2023-02-01T15:51:24;101958.00;;;12.52;65.09
43420;BME280;29017;51.514;-0.178;2023-02-01T15:58:50;101974.13;;;12.49;66.06
43420;BME280;29017;51.514;-0.178;2023-02-01T16:01:18;101977.88;;;12.47;65.78
43420;BME280;29017;51.514;-0.178;2023-02-01T16:03:46;101976.06;;;12.47;65.64
43420;BME280;29017;51.514;-0.178;2023-02-01T16:11:20;101995.22;;;12.39;66.12
43420;BME280;29017;51.514;-0.178;2023-02-01T16:13:49;102001.72;;;12.35;66.59
43420;BME280;29017;51.514;-0.178;2023-02-01T16:16:16;102006.16;;;12.35;67.28
43420;BME280;29017;51.514;-0.178;2023-02-01T16:18:44;102009.81;;;12.34;67.29
43420;BME280;29017;51.514;-0.178;2023-02-01T16:21:11;102009.81;;;12.34;67.59
43420;BME280;29017;51.514;-0.178;2023-02-01T16:23:38;102015.34;;;12.31;67.54
43420;BME280;29017;51.514;-0.178;2023-02-01T16:26:06;102011.19;;;12.28;67.58
43420;BME280;29017;51.514;-0.178;2023-02-01T16:28:34;102011.59;;;12.24;67.70
43420;BME280;29017;51.514;-0.178;2023-02-01T16:31:01;102031.97;;;12.22;67.60